Time;durP1;ratioP1;P1;durP2;ratioP2;P2;SDS_P1;SDS_P2;PMS_P1;PMS_P2;Temp;Humidity;BMP_temperature;BMP_pressure;BME280_temperature;BME280_humidity;BME280_pressure;Samples;Min_cycle;Max_cycle;Signal;HPM_P1;HPM_P2
2023/08/28 00:01:59;;;;;;;2.40;2.20;;;16.60;99.90;;;;;;4963839;28;20251;-70
2023/08/28 00:04:24;;;;;;;2.83;2.57;;;16.70;99.90;;;;;;4973993;28;20197;-68
2023/08/28 00:06:51;;;;;;;3.10;2.10;;;16.60;99.90;;;;;;4951055;28;20220;-71
2023/08/28 00:09:17;;;;;;;2.20;2.10;;;16.50;99.90;;;;;;4946464;28;20185;-70
2023/08/28 00:11:44;;;;;;;1.97;1.77;;;16.50;99.90;;;;;;4957022;28;20435;-69
2023/08/28 00:14:09;;;;;;;2.30;1.70;;;16.60;99.90;;;;;;4962208;28;20673;-69
2023/08/28 00:16:35;;;;;;;2.63;2.27;;;16.50;99.90;;;;;;4939334;29;20527;-70
2023/08/28 00:19:02;;;;;;;1.50;1.40;;;16.30;99.90;;;;;;4939633;29;20714;-69
2023/08/28 00:21:28;;;;;;;2.30;1.77;;;16.20;99.90;;;;;;4965188;28;20433;-69
2023/08/28 00:23:54;;;;;;;2.13;1.93;;;16.20;99.90;;;;;;4963980;28;20444;-71
2023/08/28 00:26:20;;;;;;;1.77;1.67;;;16.20;99.90;;;;;;4961701;28;20557;-70
2023/08/28 00:28:45;;;;;;;4.53;1.70;;;16.20;99.90;;;;;;4955556;28;20172;-70
2023/08/28 00:31:11;;;;;;;2.03;1.63;;;16.10;99.90;;;;;;4960823;28;20546;-70
2023/08/28 00:33:36;;;;;;;2.83;1.93;;;16.00;99.90;;;;;;4957694;28;20180;-70
2023/08/28 00:36:02;;;;;;;2.10;2.00;;;16.00;99.90;;;;;;4955706;28;20269;-70
2023/08/28 00:38:27;;;;;;;3.03;1.73;;;15.90;99.90;;;;;;4957926;28;20176;-71
2023/08/28 00:40:53;;;;;;;1.70;1.50;;;15.90;99.90;;;;;;4959801;28;20207;-69
2023/08/28 00:43:19;;;;;;;3.57;1.80;;;15.90;99.90;;;;;;4964869;28;20627;-69
2023/08/28 00:45:44;;;;;;;1.63;1.53;;;15.80;99.90;;;;;;4975479;28;20211;-69
2023/08/28 00:48:13;;;;;;;1.63;1.53;;;15.80;99.90;;;;;;4954141;28;20181;-71
2023/08/28 00:50:39;;;;;;;2.23;1.33;;;15.80;99.90;;;;;;4950178;28;20173;-70
2023/08/28 00:53:05;;;;;;;1.97;1.70;;;15.70;99.90;;;;;;4955955;28;20431;-69
2023/08/28 00:55:32;;;;;;;1.57;1.47;;;15.90;99.90;;;;;;4963424;28;20224;-69
2023/08/28 00:57:57;;;;;;;2.13;1.80;;;15.60;99.90;;;;;;4969929;28;20252;-69
2023/08/28 01:00:23;;;;;;;1.63;1.53;;;15.50;99.90;;;;;;4964445;28;20937;-70
2023/08/28 01:02:49;;;;;;;1.53;1.43;;;15.40;99.90;;;;;;4966845;28;20256;-69
2023/08/28 01:05:16;;;;;;;1.83;1.70;;;15.40;99.90;;;;;;4975599;28;20600;-68
2023/08/28 01:08:11;;;;;;;1.57;1.47;;;15.40;99.90;;;;;;4956506;28;20483;-68
2023/08/28 01:10:43;;;;;;;4.30;1.57;;;15.30;99.90;;;;;;4964279;28;20443;-70
2023/08/28 01:13:38;;;;;;;1.20;1.10;;;15.20;99.90;;;;;;4962502;28;20433;-70
2023/08/28 01:16:05;;;;;;;1.50;1.40;;;15.30;99.90;;;;;;4960247;28;20802;-69
2023/08/28 01:18:32;;;;;;;1.70;1.53;;;15.40;99.90;;;;;;4961156;28;20428;-70
2023/08/28 01:20:59;;;;;;;2.73;1.53;;;15.30;99.90;;;;;;4961932;28;20551;-69
2023/08/28 01:23:38;;;;;;;2.07;1.50;;;15.20;99.90;;;;;;4962800;28;20426;-70
2023/08/28 01:26:04;;;;;;;2.60;1.80;;;15.00;99.90;;;;;;4953127;28;20466;-70
2023/08/28 01:28:30;;;;;;;3.30;1.70;;;15.00;99.90;;;;;;4945186;28;20433;-70
2023/08/28 01:30:56;;;;;;;1.90;1.80;;;15.00;99.90;;;;;;4956141;28;20998;-69
2023/08/28 01:33:21;;;;;;;1.77;1.67;;;14.90;99.90;;;;;;4967389;28;20163;-69
2023/08/28 01:36:19;;;;;;;3.30;2.10;;;14.80;99.90;;;;;;4970513;28;20205;-70
2023/08/28 01:38:58;;;;;;;1.43;1.33;;;14.80;99.90;;;;;;4954662;28;20190;-70
2023/08/28 01:41:25;;;;;;;1.90;1.80;;;14.70;99.90;;;;;;4958442;28;20465;-69
2023/08/28 01:43:56;;;;;;;1.70;1.60;;;14.60;99.90;;;;;;4955637;28;20963;-69
2023/08/28 01:46:22;;;;;;;1.73;1.50;;;14.60;99.90;;;;;;4950711;28;20469;-69
2023/08/28 01:48:52;;;;;;;1.87;1.77;;;14.70;99.90;;;;;;4962480;28;20924;-70
2023/08/28 01:51:18;;;;;;;4.40;2.30;;;14.60;99.90;;;;;;4944115;28;20469;-70
2023/08/28 01:53:44;;;;;;;2.37;2.00;;;14.60;99.90;;;;;;4947976;29;20508;-70
2023/08/28 01:56:09;;;;;;;1.97;1.70;;;14.50;99.90;;;;;;4950820;28;20887;-70
2023/08/28 01:58:54;;;;;;;2.27;1.60;;;14.40;99.90;;;;;;4969615;28;20177;-69
2023/08/28 02:01:20;;;;;;;2.13;1.67;;;14.40;99.90;;;;;;4955573;28;20188;-69
2023/08/28 02:03:46;;;;;;;2.23;1.90;;;14.30;99.90;;;;;;4955433;28;20414;-70
2023/08/28 02:06:12;;;;;;;1.87;1.77;;;14.30;99.90;;;;;;4949549;28;20470;-70
2023/08/28 02:08:38;;;;;;;2.10;1.77;;;14.30;99.90;;;;;;4954638;28;20817;-70
2023/08/28 02:11:04;;;;;;;2.10;1.90;;;14.30;99.90;;;;;;4955121;28;20167;-69
2023/08/28 02:13:29;;;;;;;3.57;2.63;;;14.20;99.90;;;;;;4949348;28;20579;-69
2023/08/28 02:15:55;;;;;;;3.33;3.03;;;14.20;99.90;;;;;;4954586;29;20430;-68
2023/08/28 02:18:21;;;;;;;2.40;2.20;;;14.20;99.90;;;;;;4947296;29;20172;-69
2023/08/28 02:20:48;;;;;;;2.53;2.33;;;14.10;99.90;;;;;;4941197;29;20171;-71
2023/08/28 02:23:14;;;;;;;1.90;1.80;;;14.10;99.90;;;;;;4947843;28;20187;-68
2023/08/28 02:25:44;;;;;;;3.20;2.23;;;14.00;99.90;;;;;;4939626;28;20462;-68
2023/08/28 02:28:10;;;;;;;5.20;2.60;;;14.10;99.90;;;;;;4939090;29;20408;-70
2023/08/28 02:30:36;;;;;;;2.40;2.07;;;14.00;99.90;;;;;;4941177;29;20439;-69
2023/08/28 02:33:01;;;;;;;3.40;1.57;;;13.90;99.90;;;;;;4953039;29;20417;-69
2023/08/28 02:35:27;;;;;;;2.23;1.77;;;13.90;99.90;;;;;;4948161;29;20683;-70
2023/08/28 02:37:52;;;;;;;1.70;1.60;;;13.90;99.90;;;;;;4944469;29;20171;-70
2023/08/28 02:40:18;;;;;;;2.50;2.10;;;13.80;99.90;;;;;;4934926;29;20229;-70
2023/08/28 02:42:44;;;;;;;4.17;2.40;;;13.80;99.90;;;;;;4934911;29;20193;-70
2023/08/28 02:45:09;;;;;;;4.13;2.20;;;13.70;99.90;;;;;;4938496;29;20203;-69
2023/08/28 02:47:35;;;;;;;2.93;2.33;;;13.70;99.90;;;;;;4940824;29;20179;-70
2023/08/28 02:50:01;;;;;;;2.40;2.20;;;13.70;99.90;;;;;;4954425;29;20879;-68
2023/08/28 02:52:26;;;;;;;2.10;1.90;;;13.70;99.90;;;;;;4954422;28;20212;-69
2023/08/28 02:54:52;;;;;;;3.47;2.40;;;13.70;99.90;;;;;;4958598;28;20644;-69
2023/08/28 02:57:18;;;;;;;1.93;1.83;;;13.70;99.90;;;;;;4955269;28;20191;-69
2023/08/28 02:59:44;;;;;;;2.03;1.90;;;13.70;99.90;;;;;;4953664;28;20189;-69
2023/08/28 03:02:10;;;;;;;2.93;2.70;;;13.70;99.90;;;;;;4947331;29;20423;-70
2023/08/28 03:04:36;;;;;;;2.60;2.40;;;13.70;99.90;;;;;;4951078;28;20211;-69
2023/08/28 03:07:02;;;;;;;2.37;2.17;;;13.60;99.90;;;;;;4936923;28;20430;-70
2023/08/28 03:09:29;;;;;;;3.77;2.23;;;13.60;99.90;;;;;;4963527;28;20170;-69
2023/08/28 03:11:56;;;;;;;2.47;2.27;;;13.60;99.90;;;;;;4940734;28;20910;-69
2023/08/28 03:14:21;;;;;;;3.27;2.30;;;13.70;99.90;;;;;;4951519;29;20410;-69
2023/08/28 03:16:47;;;;;;;2.47;2.27;;;13.70;99.90;;;;;;4953823;29;20554;-69
2023/08/28 03:19:13;;;;;;;2.40;2.20;;;13.60;99.90;;;;;;4959119;28;20664;-69
2023/08/28 03:21:40;;;;;;;3.77;2.97;;;13.60;99.90;;;;;;4947671;28;20178;-70
2023/08/28 03:24:06;;;;;;;2.43;2.23;;;13.60;99.90;;;;;;4936164;29;20183;-69
2023/08/28 03:26:32;;;;;;;2.43;2.23;;;13.60;99.90;;;;;;4953292;28;20461;-68
2023/08/28 03:28:57;;;;;;;2.77;2.30;;;13.60;99.90;;;;;;4953150;29;20419;-69
2023/08/28 03:31:23;;;;;;;2.40;2.20;;;13.60;99.90;;;;;;4953435;29;20457;-70
2023/08/28 03:33:48;;;;;;;2.60;2.27;;;13.50;99.90;;;;;;4953576;28;20217;-68
2023/08/28 03:36:14;;;;;;;2.23;2.03;;;13.50;99.90;;;;;;4944469;29;20207;-69
2023/08/28 03:38:40;;;;;;;4.20;2.50;;;13.50;99.90;;;;;;4941065;29;20202;-68
2023/08/28 03:41:06;;;;;;;9.43;2.80;;;13.60;99.90;;;;;;4953633;29;20257;-68
2023/08/28 03:43:32;;;;;;;2.90;2.70;;;13.60;99.90;;;;;;4953565;28;20243;-70
2023/08/28 03:45:57;;;;;;;2.37;2.27;;;13.50;99.90;;;;;;4953136;28;20457;-68
2023/08/28 03:48:23;;;;;;;3.93;2.93;;;13.60;99.90;;;;;;4953421;29;20205;-69
2023/08/28 03:50:48;;;;;;;5.40;3.70;;;13.60;99.90;;;;;;4946355;29;20610;-69
2023/08/28 03:53:14;;;;;;;3.10;2.80;;;13.50;99.90;;;;;;4935196;29;20190;-69
2023/08/28 03:55:40;;;;;;;5.80;2.60;;;13.50;99.90;;;;;;4942596;28;20234;-69
2023/08/28 03:58:05;;;;;;;2.60;2.40;;;13.40;99.90;;;;;;4953951;28;20387;-69
2023/08/28 04:00:34;;;;;;;2.83;2.53;;;13.70;99.90;;;;;;4954359;29;20174;-69
2023/08/28 04:03:00;;;;;;;2.90;2.60;;;13.60;99.90;;;;;;4948540;28;20210;-70
2023/08/28 04:05:26;;;;;;;8.53;4.47;;;13.50;99.90;;;;;;4959026;28;20507;-68
2023/08/28 04:07:52;;;;;;;4.03;3.70;;;13.40;99.90;;;;;;4957562;28;20174;-70
2023/08/28 04:10:19;;;;;;;4.97;2.90;;;13.40;99.90;;;;;;4956815;28;20467;-70
2023/08/28 04:12:44;;;;;;;5.03;3.70;;;13.50;99.90;;;;;;4955884;28;20444;-69
2023/08/28 04:15:10;;;;;;;7.70;4.50;;;13.50;99.90;;;;;;4961457;28;20437;-69
2023/08/28 04:17:36;;;;;;;3.53;2.80;;;13.60;99.90;;;;;;4971337;28;20177;-73
2023/08/28 04:20:14;;;;;;;7.13;6.27;;;13.50;99.90;;;;;;4971466;28;20177;-73
2023/08/28 04:22:41;;;;;;;5.10;4.60;;;13.50;99.90;;;;;;4953081;28;20490;-70
2023/08/28 04:25:08;;;;;;;5.30;3.50;;;13.50;99.90;;;;;;4952193;28;20836;-70
2023/08/28 04:27:34;;;;;;;6.87;5.87;;;13.50;99.90;;;;;;4956601;28;20497;-72
2023/08/28 04:29:59;;;;;;;4.07;3.60;;;13.80;99.90;;;;;;4956494;28;20454;-70
2023/08/28 04:32:25;;;;;;;5.77;4.30;;;13.60;99.90;;;;;;4949470;28;20183;-70
2023/08/28 04:34:50;;;;;;;5.10;3.50;;;13.70;99.90;;;;;;4964285;28;20178;-70
2023/08/28 04:37:16;;;;;;;5.67;3.40;;;13.90;99.90;;;;;;4954712;29;20619;-70
2023/08/28 04:39:43;;;;;;;3.63;3.33;;;13.80;99.90;;;;;;4965043;28;20206;-70
2023/08/28 04:42:14;;;;;;;4.53;3.37;;;13.80;99.90;;;;;;4961793;28;20549;-71
2023/08/28 04:44:39;;;;;;;4.93;3.57;;;13.80;99.90;;;;;;4975501;28;20475;-69
2023/08/28 04:47:05;;;;;;;4.87;4.00;;;13.80;99.90;;;;;;4961285;28;20854;-71
2023/08/28 04:49:30;;;;;;;4.33;3.93;;;13.90;99.90;;;;;;4954187;28;20206;-70
2023/08/28 04:51:56;;;;;;;4.87;4.30;;;13.90;99.90;;;;;;4962504;28;20171;-70
2023/08/28 04:54:22;;;;;;;4.50;4.00;;;14.00;99.90;;;;;;4964753;28;20179;-71
2023/08/28 04:56:48;;;;;;;3.47;3.17;;;14.10;99.90;;;;;;4956465;29;20190;-71
2023/08/28 04:59:14;;;;;;;4.40;3.37;;;14.10;99.90;;;;;;4960858;28;20186;-69
2023/08/28 05:01:39;;;;;;;6.63;3.50;;;14.10;99.90;;;;;;4967707;28;20415;-71
2023/08/28 05:04:06;;;;;;;7.30;4.40;;;14.10;99.90;;;;;;4959240;28;20252;-70
2023/08/28 05:06:32;;;;;;;5.20;3.57;;;14.10;99.90;;;;;;4956122;28;20226;-71
2023/08/28 05:08:57;;;;;;;8.37;4.93;;;14.20;99.90;;;;;;4960364;28;20874;-71
2023/08/28 05:11:23;;;;;;;3.93;3.63;;;14.10;99.90;;;;;;4953923;28;20643;-70
2023/08/28 05:13:49;;;;;;;4.07;3.23;;;14.20;99.90;;;;;;4968078;28;20205;-69
2023/08/28 05:16:14;;;;;;;4.43;3.60;;;14.20;99.90;;;;;;4976384;28;20195;-70
2023/08/28 05:18:40;;;;;;;3.97;3.60;;;14.30;99.90;;;;;;4978947;28;20534;-71
2023/08/28 05:21:06;;;;;;;4.33;3.93;;;14.40;99.90;;;;;;4968682;28;20280;-71
2023/08/28 05:23:32;;;;;;;6.20;4.20;;;14.40;99.90;;;;;;4969497;28;20688;-70
2023/08/28 05:25:58;;;;;;;8.73;4.33;;;14.40;99.90;;;;;;4953842;29;20222;-70
2023/08/28 05:28:23;;;;;;;4.93;3.77;;;14.40;99.90;;;;;;4947760;29;20853;-70
2023/08/28 05:30:49;;;;;;;3.90;3.57;;;14.40;99.90;;;;;;4942752;28;20510;-71
2023/08/28 05:33:15;;;;;;;6.80;3.77;;;14.40;99.90;;;;;;4964020;28;20638;-71
2023/08/28 05:35:42;;;;;;;4.23;3.80;;;14.40;99.90;;;;;;4969780;28;20241;-71
2023/08/28 05:38:08;;;;;;;5.33;3.87;;;14.50;99.90;;;;;;4959993;28;20187;-69
2023/08/28 05:40:33;;;;;;;4.10;3.30;;;14.70;99.90;;;;;;4957123;28;20500;-70
2023/08/28 05:42:59;;;;;;;4.80;3.90;;;14.90;99.90;;;;;;4951638;28;20434;-69
2023/08/28 05:45:25;;;;;;;3.70;3.40;;;15.00;99.90;;;;;;4960131;28;20213;-70
2023/08/28 05:47:51;;;;;;;2.73;2.53;;;15.10;99.90;;;;;;4950151;28;20419;-70
2023/08/28 05:50:18;;;;;;;4.57;3.40;;;15.60;99.90;;;;;;4953273;28;20196;-71
2023/08/28 05:52:44;;;;;;;3.80;3.07;;;15.60;99.90;;;;;;4954738;28;20177;-71
2023/08/28 05:55:10;;;;;;;6.63;3.50;;;16.00;99.90;;;;;;4974080;28;20563;-70
2023/08/28 05:57:35;;;;;;;8.70;3.60;;;15.90;99.90;;;;;;4974273;28;20514;-70
2023/08/28 06:00:02;;;;;;;5.07;3.27;;;16.20;99.90;;;;;;4952394;28;20174;-70
2023/08/28 06:02:28;;;;;;;3.53;3.23;;;15.80;99.90;;;;;;4960739;28;20186;-70
2023/08/28 06:04:54;;;;;;;3.57;3.27;;;15.70;99.90;;;;;;4953021;28;20459;-70
2023/08/28 06:07:19;;;;;;;4.10;2.90;;;15.90;99.90;;;;;;4956173;28;20216;-71
2023/08/28 06:09:46;;;;;;;4.80;3.27;;;16.00;99.90;;;;;;4962967;28;20614;-73
2023/08/28 06:12:12;;;;;;;4.03;2.27;;;16.40;99.90;;;;;;4949527;29;20421;-71
2023/08/28 06:14:37;;;;;;;4.43;2.80;;;16.80;99.90;;;;;;4955359;28;20178;-71
2023/08/28 06:17:03;;;;;;;2.30;2.10;;;16.90;99.90;;;;;;4954976;29;20782;-71
2023/08/28 06:19:29;;;;;;;4.00;2.80;;;17.00;99.90;;;;;;4956733;28;20187;-69
2023/08/28 06:21:55;;;;;;;2.93;2.50;;;16.90;99.90;;;;;;4955129;28;20436;-70
2023/08/28 06:24:21;;;;;;;2.87;2.40;;;17.00;99.90;;;;;;4938924;28;20435;-70
2023/08/28 06:26:47;;;;;;;2.23;1.97;;;17.20;99.90;;;;;;4954774;28;20491;-70
2023/08/28 06:29:13;;;;;;;3.23;2.40;;;17.50;99.90;;;;;;4954056;29;20190;-70
2023/08/28 06:31:38;;;;;;;4.87;2.57;;;17.40;99.90;;;;;;4955067;29;20184;-71
2023/08/28 06:34:04;;;;;;;4.13;2.00;;;17.60;99.90;;;;;;4955106;28;20536;-70
2023/08/28 06:36:30;;;;;;;3.13;2.80;;;18.00;99.90;;;;;;4954880;29;20201;-71
2023/08/28 06:38:56;;;;;;;3.60;2.60;;;18.10;99.90;;;;;;4953126;29;20170;-69
2023/08/28 06:41:22;;;;;;;4.20;2.10;;;18.40;99.90;;;;;;4965398;28;20610;-71
2023/08/28 06:43:50;;;;;;;2.60;2.40;;;19.00;99.90;;;;;;4948408;28;20191;-72
2023/08/28 06:46:16;;;;;;;3.53;2.70;;;18.50;99.90;;;;;;4956084;28;20220;-72
2023/08/28 06:48:45;;;;;;;4.70;3.57;;;19.10;99.90;;;;;;4965849;28;20419;-76
2023/08/28 06:51:11;;;;;;;2.60;2.40;;;20.10;99.90;;;;;;4956011;28;20212;-73
2023/08/28 06:53:38;;;;;;;2.40;2.20;;;20.40;99.90;;;;;;4954762;28;20402;-70
2023/08/28 06:56:04;;;;;;;2.63;2.03;;;20.60;99.90;;;;;;4954982;28;21083;-71
2023/08/28 06:58:30;;;;;;;2.33;1.77;;;20.60;99.90;;;;;;4954058;28;20414;-71
2023/08/28 07:00:55;;;;;;;2.30;1.80;;;20.90;99.90;;;;;;4953463;28;20435;-71
2023/08/28 07:03:21;;;;;;;1.73;1.60;;;21.90;99.90;;;;;;4957379;28;20186;-73
2023/08/28 07:05:47;;;;;;;2.67;2.10;;;21.90;99.90;;;;;;4972797;28;20213;-71
2023/08/28 07:08:12;;;;;;;4.43;2.03;;;21.90;99.90;;;;;;4973336;28;20170;-71
2023/08/28 07:10:38;;;;;;;2.97;1.73;;;21.40;99.90;;;;;;4973377;28;20170;-73
2023/08/28 07:13:03;;;;;;;2.03;1.60;;;21.90;99.90;;;;;;4975042;28;20173;-70
2023/08/28 07:15:29;;;;;;;2.20;1.40;;;21.20;99.90;;;;;;4973300;28;20233;-71
2023/08/28 07:17:55;;;;;;;3.53;1.70;;;21.40;99.90;;;;;;4972889;28;20180;-70
2023/08/28 07:20:22;;;;;;;3.00;1.60;;;22.40;99.90;;;;;;4956265;28;20236;-72
2023/08/28 07:22:48;;;;;;;1.60;1.47;;;23.10;99.90;;;;;;4954005;29;20174;-71
2023/08/28 07:25:15;;;;;;;1.80;1.70;;;22.50;99.90;;;;;;4953696;28;20469;-71
2023/08/28 07:27:41;;;;;;;7.13;5.63;;;21.80;99.90;;;;;;4953859;28;20550;-70
2023/08/28 07:30:07;;;;;;;4.83;1.80;;;22.20;99.90;;;;;;4953393;28;20410;-72
2023/08/28 07:32:32;;;;;;;1.97;1.60;;;21.80;99.90;;;;;;4954015;28;20170;-72
2023/08/28 07:35:00;;;;;;;1.43;1.20;;;22.60;99.90;;;;;;4953684;28;20488;-70
2023/08/28 07:37:29;;;;;;;6.40;1.80;;;22.20;99.90;;;;;;4950319;28;20264;-71
2023/08/28 07:39:54;;;;;;;2.90;1.10;;;21.30;99.90;;;;;;4965680;28;20448;-71
2023/08/28 07:42:20;;;;;;;3.70;2.10;;;21.60;99.90;;;;;;4957489;28;20875;-71
2023/08/28 07:44:46;;;;;;;3.53;1.40;;;20.60;99.90;;;;;;4952546;29;20203;-71
2023/08/28 07:47:12;;;;;;;2.30;1.30;;;20.30;99.90;;;;;;4953653;29;20520;-72
2023/08/28 07:49:38;;;;;;;2.67;1.50;;;20.50;99.90;;;;;;4953500;29;20887;-71
2023/08/28 07:52:04;;;;;;;11.00;7.23;;;20.70;99.90;;;;;;4947027;28;20195;-71
2023/08/28 07:54:30;;;;;;;1.43;1.27;;;20.20;99.90;;;;;;4937200;29;20190;-72
2023/08/28 07:56:55;;;;;;;1.90;1.33;;;20.40;99.90;;;;;;4934297;29;20561;-70
2023/08/28 07:59:21;;;;;;;3.17;2.07;;;20.60;99.90;;;;;;4935051;28;20183;-70
2023/08/28 08:01:47;;;;;;;2.60;1.93;;;20.20;99.90;;;;;;4941979;28;20549;-72
2023/08/28 08:04:12;;;;;;;2.53;1.63;;;19.50;99.90;;;;;;4946862;28;20197;-70
2023/08/28 08:06:38;;;;;;;3.60;1.80;;;19.50;99.90;;;;;;4956731;28;20224;-71
2023/08/28 08:09:04;;;;;;;3.07;1.80;;;19.30;99.90;;;;;;4959407;28;20184;-71
2023/08/28 08:11:32;;;;;;;1.97;1.50;;;20.00;99.90;;;;;;4967405;28;20440;-71
2023/08/28 08:13:57;;;;;;;1.73;1.20;;;19.90;99.90;;;;;;4957105;29;20414;-71
2023/08/28 08:16:24;;;;;;;1.57;1.00;;;19.90;99.90;;;;;;4946648;28;20462;-72
2023/08/28 08:18:49;;;;;;;3.00;1.70;;;19.20;99.90;;;;;;4963928;28;20444;-73
2023/08/28 08:21:15;;;;;;;8.53;4.53;;;19.20;99.90;;;;;;4959206;28;20528;-73
2023/08/28 08:23:41;;;;;;;9.57;7.97;;;19.20;99.90;;;;;;4966838;28;20197;-71
2023/08/28 08:26:07;;;;;;;3.10;2.80;;;20.50;99.90;;;;;;4957286;28;20221;-71
2023/08/28 08:28:33;;;;;;;3.30;1.53;;;21.00;99.90;;;;;;4960631;28;20441;-71
2023/08/28 08:30:58;;;;;;;6.30;1.33;;;21.30;99.90;;;;;;4974729;28;20433;-71
2023/08/28 08:33:24;;;;;;;2.17;1.23;;;20.70;99.90;;;;;;4970483;28;20208;-72
2023/08/28 08:35:50;;;;;;;1.57;1.33;;;21.00;99.90;;;;;;4981459;28;20199;-72
2023/08/28 08:38:16;;;;;;;3.80;1.20;;;21.20;99.90;;;;;;4963324;28;20194;-71
2023/08/28 08:40:43;;;;;;;1.30;1.13;;;20.60;99.90;;;;;;4947648;28;20446;-71
2023/08/28 08:43:08;;;;;;;3.10;1.00;;;21.00;99.90;;;;;;4959341;28;20201;-71
2023/08/28 08:45:37;;;;;;;2.27;1.40;;;20.70;99.90;;;;;;4948960;28;20532;-71
2023/08/28 08:48:06;;;;;;;1.97;1.77;;;20.10;99.90;;;;;;4960911;28;20188;-70
2023/08/28 08:50:35;;;;;;;2.93;2.30;;;20.70;99.90;;;;;;4952309;28;20974;-71
2023/08/28 08:53:08;;;;;;;2.07;1.50;;;22.70;99.90;;;;;;4946151;28;20497;-72
2023/08/28 08:55:40;;;;;;;3.50;1.30;;;21.70;99.90;;;;;;4958461;28;20916;-72
2023/08/28 08:58:10;;;;;;;2.07;1.80;;;21.80;99.90;;;;;;4946095;28;20805;-71
2023/08/28 09:00:38;;;;;;;3.73;2.03;;;22.10;99.90;;;;;;4965255;28;20963;-70
2023/08/28 09:03:05;;;;;;;6.47;4.47;;;21.00;99.90;;;;;;4955346;28;20417;-74
2023/08/28 09:05:32;;;;;;;3.33;1.70;;;20.20;99.90;;;;;;4937603;28;20470;-73
2023/08/28 09:08:01;;;;;;;3.10;2.70;;;19.90;99.90;;;;;;4961749;28;20513;-72
2023/08/28 09:10:26;;;;;;;10.27;3.63;;;20.70;99.90;;;;;;4975566;28;20460;-72
2023/08/28 09:12:54;;;;;;;1.30;1.10;;;21.70;99.90;;;;;;4951879;28;20652;-72
2023/08/28 09:15:20;;;;;;;1.33;1.23;;;21.60;99.90;;;;;;4943803;28;20215;-71
2023/08/28 09:17:45;;;;;;;2.27;1.37;;;20.10;99.90;;;;;;4973855;28;20414;-72
2023/08/28 09:20:16;;;;;;;7.30;1.87;;;19.80;99.90;;;;;;4944907;29;20550;-72
2023/08/28 09:22:49;;;;;;;6.67;1.97;;;19.60;99.90;;;;;;4936831;29;20182;-72
2023/08/28 09:25:19;;;;;;;6.43;2.07;;;19.60;99.90;;;;;;4936263;29;20727;-70
2023/08/28 09:27:46;;;;;;;6.57;2.67;;;20.10;99.90;;;;;;4949683;28;20429;-72
2023/08/28 09:30:36;;;;;;;5.67;3.73;;;20.00;99.90;;;;;;4956297;28;20515;-71
2023/08/28 09:33:06;;;;;;;3.53;2.80;;;19.20;99.90;;;;;;4944387;29;20849;-72
2023/08/28 09:35:38;;;;;;;3.03;1.90;;;19.20;99.90;;;;;;4948348;28;20512;-72
2023/08/28 09:38:03;;;;;;;4.70;1.80;;;19.20;99.90;;;;;;4960124;28;20469;-72
2023/08/28 09:40:31;;;;;;;2.30;1.40;;;19.30;99.90;;;;;;4948793;28;20537;-70
2023/08/28 09:43:00;;;;;;;1.33;1.23;;;19.40;99.90;;;;;;4965004;28;20642;-72
2023/08/28 09:45:33;;;;;;;1.50;1.30;;;19.80;99.90;;;;;;4961608;28;20471;-72
2023/08/28 09:47:59;;;;;;;2.43;1.40;;;19.80;99.90;;;;;;4947797;28;20779;-72
2023/08/28 09:50:28;;;;;;;3.13;1.47;;;19.30;99.90;;;;;;4960393;28;20806;-72
2023/08/28 09:52:53;;;;;;;2.73;1.17;;;18.90;99.90;;;;;;4950460;28;20457;-71
2023/08/28 09:55:20;;;;;;;2.30;1.03;;;18.80;99.90;;;;;;4958513;28;20490;-70
2023/08/28 09:57:46;;;;;;;1.33;1.13;;;19.10;99.90;;;;;;4958757;28;20331;-71
2023/08/28 10:00:13;;;;;;;1.93;1.40;;;19.30;99.90;;;;;;4960547;28;20421;-73
2023/08/28 10:02:39;;;;;;;1.83;1.30;;;19.50;99.90;;;;;;4955120;28;20437;-72
2023/08/28 10:05:09;;;;;;;2.10;1.30;;;19.10;99.90;;;;;;4946425;28;20560;-72
2023/08/28 10:07:38;;;;;;;1.93;1.30;;;19.50;99.90;;;;;;4963646;28;20424;-72
2023/08/28 10:10:10;;;;;;;3.33;1.20;;;19.60;99.90;;;;;;4965733;28;20423;-72
2023/08/28 10:12:36;;;;;;;2.47;1.20;;;19.10;99.90;;;;;;4955378;28;20411;-72
2023/08/28 10:15:04;;;;;;;1.37;1.10;;;19.00;99.90;;;;;;4971763;28;20525;-71
2023/08/28 10:17:34;;;;;;;4.33;1.20;;;19.00;99.90;;;;;;4961972;28;20442;-71
2023/08/28 10:20:02;;;;;;;1.60;1.50;;;19.30;99.90;;;;;;4941334;28;20437;-73
2023/08/28 10:22:30;;;;;;;2.80;1.33;;;19.70;99.90;;;;;;4961440;28;20501;-73
2023/08/28 10:24:57;;;;;;;1.33;1.10;;;20.00;99.90;;;;;;4961991;28;20457;-71
2023/08/28 10:27:24;;;;;;;1.93;1.40;;;20.20;99.90;;;;;;4960594;28;20445;-71
2023/08/28 10:29:51;;;;;;;3.93;1.20;;;20.50;99.90;;;;;;4946195;28;20430;-71
2023/08/28 10:32:20;;;;;;;2.97;1.70;;;20.70;99.90;;;;;;4961048;28;20781;-72
2023/08/28 10:34:46;;;;;;;4.63;1.57;;;20.60;99.90;;;;;;4954445;28;20428;-72
2023/08/28 10:37:13;;;;;;;3.27;1.30;;;20.00;99.90;;;;;;4954218;28;20458;-72
2023/08/28 10:39:41;;;;;;;3.27;1.30;;;20.20;99.90;;;;;;4961748;28;20448;-72
2023/08/28 10:42:09;;;;;;;1.60;1.50;;;20.10;99.90;;;;;;4957548;28;20420;-72
2023/08/28 10:44:36;;;;;;;1.40;1.20;;;20.20;99.90;;;;;;4943046;29;20985;-71
2023/08/28 10:47:03;;;;;;;2.17;1.20;;;21.00;99.90;;;;;;4923412;29;20454;-73
2023/08/28 10:49:29;;;;;;;3.40;2.30;;;21.30;99.90;;;;;;4945712;28;20518;-72
2023/08/28 10:52:06;;;;;;;1.47;1.00;;;21.10;99.90;;;;;;4965694;28;20404;-72
2023/08/28 10:54:44;;;;;;;4.30;1.50;;;21.30;99.90;;;;;;4952580;28;20425;-71
2023/08/28 10:57:25;;;;;;;3.37;1.53;;;21.00;99.90;;;;;;4962775;28;20449;-72
2023/08/28 10:59:51;;;;;;;1.10;1.00;;;21.00;99.90;;;;;;4944976;28;20843;-72
2023/08/28 11:02:17;;;;;;;2.77;1.20;;;21.00;99.90;;;;;;4954525;28;20429;-72
2023/08/28 11:04:43;;;;;;;3.93;1.47;;;20.30;99.90;;;;;;4956546;28;20452;-71
2023/08/28 11:07:21;;;;;;;4.20;1.20;;;20.00;99.90;;;;;;4966670;28;20848;-70
2023/08/28 11:09:47;;;;;;;3.43;1.63;;;20.40;99.90;;;;;;4969215;28;20179;-73
2023/08/28 11:12:13;;;;;;;4.70;1.77;;;20.50;99.90;;;;;;4964487;28;20474;-71
2023/08/28 11:14:40;;;;;;;4.63;2.00;;;21.20;99.90;;;;;;4951980;28;20438;-70
2023/08/28 11:17:12;;;;;;;2.33;2.13;;;20.90;99.90;;;;;;4946802;28;20493;-71
2023/08/28 11:19:53;;;;;;;3.20;1.30;;;21.30;99.90;;;;;;4958443;28;20440;-72
2023/08/28 11:22:39;;;;;;;1.70;1.50;;;20.70;99.90;;;;;;4968830;28;20463;-72
2023/08/28 11:25:09;;;;;;;1.70;1.20;;;20.60;99.90;;;;;;4935590;28;1093752;-71
2023/08/28 11:27:48;;;;;;;2.23;1.27;;;19.90;99.90;;;;;;4973804;28;20401;-72
2023/08/28 11:30:22;;;;;;;4.73;1.20;;;20.30;99.90;;;;;;4942719;28;20782;-72
2023/08/28 11:32:52;;;;;;;0.87;0.87;;;20.20;99.90;;;;;;4946606;28;20535;-72
2023/08/28 11:35:18;;;;;;;3.37;1.50;;;20.40;99.90;;;;;;4959336;28;20503;-70
2023/08/28 11:38:03;;;;;;;2.30;1.37;;;20.10;99.90;;;;;;4975127;28;20805;-72
2023/08/28 11:40:29;;;;;;;3.37;2.40;;;20.10;99.90;;;;;;4968154;28;20433;-72
2023/08/28 11:43:03;;;;;;;2.03;1.20;;;20.60;99.90;;;;;;4979267;28;20439;-71
2023/08/28 11:45:29;;;;;;;1.63;0.80;;;20.70;99.90;;;;;;4962668;28;20374;-71
2023/08/28 11:47:58;;;;;;;3.57;1.37;;;20.50;99.90;;;;;;4962477;28;20519;-71
2023/08/28 11:50:23;;;;;;;4.00;2.03;;;20.40;99.90;;;;;;4962798;28;20192;-72
2023/08/28 11:52:50;;;;;;;1.53;1.27;;;20.20;99.90;;;;;;4955218;28;20438;-71
2023/08/28 11:55:16;;;;;;;10.23;1.50;;;20.80;99.90;;;;;;4956615;28;20192;-73
2023/08/28 11:57:43;;;;;;;2.17;1.27;;;21.50;99.90;;;;;;4968525;28;20900;-72
2023/08/28 12:00:14;;;;;;;1.30;1.20;;;21.80;99.90;;;;;;4951584;29;20209;-71
2023/08/28 12:02:42;;;;;;;1.27;1.00;;;21.60;99.90;;;;;;4962044;28;20436;-71
2023/08/28 12:05:09;;;;;;;1.50;1.40;;;20.90;99.90;;;;;;4954969;28;20933;-70
2023/08/28 12:07:35;;;;;;;1.00;0.90;;;21.10;99.90;;;;;;4950961;28;20436;-70
2023/08/28 12:10:01;;;;;;;1.00;0.90;;;21.50;99.90;;;;;;4965151;28;20421;-72
2023/08/28 12:12:27;;;;;;;1.40;0.93;;;21.30;99.90;;;;;;4951113;28;20178;-71
2023/08/28 12:14:54;;;;;;;2.60;1.10;;;21.00;99.90;;;;;;4960721;28;20433;-71
2023/08/28 12:17:23;;;;;;;2.93;1.33;;;21.10;99.90;;;;;;4959482;28;20434;-71
2023/08/28 12:19:51;;;;;;;5.10;4.57;;;20.80;99.90;;;;;;4957440;28;20409;-70
2023/08/28 12:22:20;;;;;;;10.70;7.43;;;21.20;99.90;;;;;;4962461;28;20418;-70
2023/08/28 12:24:48;;;;;;;4.53;3.07;;;22.00;99.90;;;;;;4939108;28;20468;-75
2023/08/28 12:27:15;;;;;;;3.00;1.07;;;22.10;99.90;;;;;;4955758;28;20464;-71
2023/08/28 12:29:42;;;;;;;2.60;1.90;;;22.00;99.90;;;;;;4957433;28;20472;-72
2023/08/28 12:32:14;;;;;;;1.47;1.10;;;21.90;99.90;;;;;;4946314;28;20439;-72
2023/08/28 12:34:40;;;;;;;2.40;1.17;;;21.70;99.90;;;;;;4959247;28;20770;-71
2023/08/28 12:37:07;;;;;;;3.50;1.00;;;21.00;99.90;;;;;;4964850;28;20449;-75
2023/08/28 12:39:34;;;;;;;4.77;2.97;;;21.30;99.90;;;;;;4947733;28;20174;-71
2023/08/28 12:42:01;;;;;;;4.03;3.23;;;21.60;99.90;;;;;;4952710;28;20428;-72
2023/08/28 12:44:28;;;;;;;3.47;1.30;;;21.80;99.90;;;;;;4959406;28;20420;-71
2023/08/28 12:46:55;;;;;;;1.27;0.90;;;21.80;99.90;;;;;;4953211;28;20881;-72